Providence, Rhode Island
Traffic Map
Current Weather Conditions
Providence, Rhode Island
Overcast
Overcast
28°
Feels Like: 19°
Wind Chill: 19° Ceiling: 3400
Heat Index: 28° Visibility: 10mi
Dew Point: 21° Wind: 9mph
Humidity: 75% Direction: 360° (N)
Pressure: 30.18in Gusts: 0mph
Raw Report DataKPVD 200851Z 36008KT 10SM OVC034 M02/M06 A3018 RMK AO2 SLP221 T10221061 50007
Traffic Incident Summary
Active as of:
Severity:
Category:
InformationThere was an issue retrieving the traffic information for this location. Please try a different location or try again shortly.
Advertisements
Track Severe Weather on mobile